createdAt,value
2023-03-27T00:03:09.287Z,1001.885
2023-03-27T00:23:07.139Z,1002.189
2023-03-27T00:43:07.984Z,1002.363
2023-03-27T01:03:09.199Z,1002.623
2023-03-27T01:23:07.305Z,1002.953
2023-03-27T01:43:08.033Z,1003.205
2023-03-27T02:03:08.997Z,1003.43
2023-03-27T02:23:08.012Z,1003.679
2023-03-27T02:43:07.947Z,1003.92
2023-03-27T03:03:09.364Z,1004.202
2023-03-27T03:23:07.341Z,1004.512
2023-03-27T03:43:07.221Z,1004.756
2023-03-27T04:03:08.425Z,1004.998
2023-03-27T04:23:07.445Z,1005.346
2023-03-27T04:43:07.677Z,1005.626
2023-03-27T05:03:08.882Z,1005.806
2023-03-27T05:23:07.852Z,1006.058
2023-03-27T05:43:07.656Z,1006.351
2023-03-27T06:03:09.086Z,1006.587
2023-03-27T06:23:07.981Z,1006.699
2023-03-27T06:43:07.907Z,1007.013
2023-03-27T07:03:09.162Z,1007.244
2023-03-27T07:23:08.125Z,1007.39
2023-03-27T07:43:08.112Z,1007.628
2023-03-27T08:03:09.987Z,1007.908
2023-03-27T08:23:08.096Z,1007.924
2023-03-27T08:43:07.069Z,1008.054
2023-03-27T09:03:09.312Z,1008.323
2023-03-27T09:23:07.251Z,1008.37
2023-03-27T09:43:07.091Z,1008.481
2023-03-27T10:03:09.385Z,1008.598
2023-03-27T10:23:07.592Z,1008.71
2023-03-27T10:43:07.603Z,1008.831
2023-03-27T11:03:08.961Z,1008.821
2023-03-27T11:23:07.924Z,1008.697
2023-03-27T11:43:08.016Z,1008.935
2023-03-27T12:03:09.320Z,1009.404
2023-03-27T12:23:07.322Z,1009.235
2023-03-27T12:43:07.414Z,1009.435
2023-03-27T13:03:09.019Z,1009.266
2023-03-27T13:23:07.944Z,1009.3
2023-03-27T13:43:07.904Z,1009.466
2023-03-27T14:03:09.023Z,1010.341
2023-03-27T14:23:08.154Z,1010.183
2023-03-27T14:43:07.363Z,1010.274
2023-03-27T15:03:08.538Z,1010.222
2023-03-27T15:23:07.646Z,1010.522
2023-03-27T15:43:07.774Z,1010.851
2023-03-27T16:03:09.048Z,1010.724
2023-03-27T16:23:07.974Z,1010.944
2023-03-27T16:43:07.987Z,1011.47
2023-03-27T17:03:09.288Z,1011.493
2023-03-27T17:23:07.115Z,1012.13
2023-03-27T17:43:07.196Z,1012.058
2023-03-27T18:03:08.369Z,1012.384
2023-03-27T18:23:07.408Z,1012.594
2023-03-27T18:43:07.640Z,1012.739
2023-03-27T19:03:09.142Z,1012.869
2023-03-27T19:23:07.102Z,1012.941
2023-03-27T19:43:08.350Z,1013.032
2023-03-27T20:03:08.788Z,1013.245
2023-03-27T20:23:07.804Z,1013.333
2023-03-27T20:43:07.860Z,1013.53
2023-03-27T21:03:09.666Z,1013.623
2023-03-27T21:23:07.621Z,1013.796
2023-03-27T21:43:07.711Z,1013.82
2023-03-27T22:03:08.768Z,1013.791
2023-03-27T22:23:07.557Z,1013.921
2023-03-27T22:43:07.392Z,1014.03
2023-03-27T23:03:08.476Z,1014.343
2023-03-27T23:23:07.381Z,1014.457
2023-03-27T23:43:08.083Z,1014.566
